Time;durP1;ratioP1;P1;durP2;ratioP2;P2;SDS_P1;SDS_P2;PMS_P1;PMS_P2;Temp;Humidity;BMP_temperature;BMP_pressure;BME280_temperature;BME280_humidity;BME280_pressure;Samples;Min_cycle;Max_cycle;Signal;HPM_P1;HPM_P2
2023/01/18 00:01:53;;;;;;;2.37;1.37;;;0.60;99.90;;;;;;4983916;28;20088;-80
2023/01/18 00:04:18;;;;;;;2.67;0.90;;;0.60;99.90;;;;;;4984070;28;20456;-80
2023/01/18 00:06:44;;;;;;;2.77;1.53;;;0.60;99.90;;;;;;4983218;28;20098;-78
2023/01/18 00:09:09;;;;;;;2.00;1.10;;;0.50;99.90;;;;;;4983490;28;20515;-79
2023/01/18 00:11:35;;;;;;;3.10;1.80;;;0.50;99.90;;;;;;4984447;28;20061;-79
2023/01/18 00:14:01;;;;;;;7.03;2.03;;;0.50;99.90;;;;;;4984299;28;20070;-80
2023/01/18 00:16:29;;;;;;;1.27;1.00;;;0.50;99.90;;;;;;4984304;28;20053;-80
2023/01/18 00:18:58;;;;;;;1.67;0.67;;;0.50;99.90;;;;;;4984169;28;20130;-80
2023/01/18 00:21:25;;;;;;;2.53;0.90;;;0.50;99.90;;;;;;4983939;28;20663;-79
2023/01/18 00:23:52;;;;;;;3.70;1.67;;;0.50;99.90;;;;;;4983053;28;20050;-78
2023/01/18 00:26:18;;;;;;;1.70;1.60;;;0.50;99.90;;;;;;4983873;28;20100;-79
2023/01/18 00:28:44;;;;;;;1.97;1.37;;;0.50;99.90;;;;;;4985238;28;20408;-79
2023/01/18 00:31:15;;;;;;;2.87;1.83;;;0.50;99.90;;;;;;5003575;28;20048;-79
2023/01/18 00:33:42;;;;;;;1.73;1.02;;;0.50;99.90;;;;;;5003413;28;20501;-79
2023/01/18 00:36:09;;;;;;;7.87;2.67;;;0.50;99.90;;;;;;4986250;28;20049;-79
2023/01/18 00:38:34;;;;;;;1.67;1.23;;;0.50;99.90;;;;;;4956317;28;20130;-80
2023/01/18 00:41:00;;;;;;;2.23;0.80;;;0.50;99.90;;;;;;4983826;28;20133;-80
2023/01/18 00:43:37;;;;;;;8.47;2.27;;;0.50;99.90;;;;;;4966729;28;20042;-79
2023/01/18 00:46:14;;;;;;;8.77;1.47;;;0.50;99.90;;;;;;4967193;28;20042;-79
2023/01/18 00:48:40;;;;;;;1.40;0.87;;;0.50;99.90;;;;;;4983793;28;20118;-79
2023/01/18 00:51:09;;;;;;;0.77;0.63;;;0.50;99.90;;;;;;4966303;28;20327;-80
2023/01/18 00:53:36;;;;;;;1.67;0.90;;;0.60;99.90;;;;;;4983656;28;20318;-79
2023/01/18 00:56:03;;;;;;;1.30;1.00;;;0.60;99.90;;;;;;4984298;28;20038;-80
2023/01/18 00:58:29;;;;;;;1.47;1.37;;;0.60;99.90;;;;;;4983996;28;20484;-80
2023/01/18 01:00:54;;;;;;;1.70;1.43;;;0.60;99.90;;;;;;4983453;28;20825;-79
2023/01/18 01:03:20;;;;;;;0.97;0.77;;;0.60;99.90;;;;;;4984595;28;20409;-79
2023/01/18 01:08:30;;;;;;;1.17;0.83;;;0.60;99.90;;;;;;4986981;28;20081;-79
2023/01/18 01:11:05;;;;;;;1.37;1.03;;;0.60;99.90;;;;;;4987446;28;20050;-79
2023/01/18 01:27:13;;;;;;;2.00;0.90;;;0.60;99.90;;;;;;4975979;28;20129;-79
2023/01/18 01:29:38;;;;;;;1.00;0.70;;;0.50;99.90;;;;;;4989002;28;20136;-78
2023/01/18 01:32:05;;;;;;;1.70;1.60;;;0.50;99.90;;;;;;5007016;28;20128;-78
2023/01/18 01:34:31;;;;;;;2.23;1.57;;;0.50;99.90;;;;;;4958005;28;20046;-79
2023/01/18 01:36:57;;;;;;;3.07;1.20;;;0.60;99.90;;;;;;4968378;28;20046;-79
2023/01/18 01:39:22;;;;;;;1.27;0.97;;;0.50;99.90;;;;;;4987265;28;20117;-80
2023/01/18 01:41:48;;;;;;;1.47;1.37;;;0.50;99.90;;;;;;4986969;28;20042;-79
2023/01/18 01:44:18;;;;;;;2.43;1.23;;;0.50;99.90;;;;;;4937033;28;20050;-78
2023/01/18 01:46:49;;;;;;;1.40;1.30;;;0.50;99.90;;;;;;4986158;28;20118;-78
2023/01/18 01:49:38;;;;;;;14.55;1.58;;;0.50;99.90;;;;;;4968995;28;20497;-78
2023/01/18 01:52:07;;;;;;;1.77;0.70;;;0.50;99.90;;;;;;4968814;28;20046;-79
2023/01/18 01:54:41;;;;;;;3.37;1.43;;;0.50;99.90;;;;;;4986894;28;20601;-78
2023/01/18 01:57:10;;;;;;;1.83;1.70;;;0.50;99.90;;;;;;4969229;28;20050;-79
2023/01/18 01:59:41;;;;;;;3.13;1.07;;;0.50;99.90;;;;;;4969132;28;20042;-79
2023/01/18 02:02:07;;;;;;;2.30;2.00;;;0.50;99.90;;;;;;4986446;28;20042;-79
2023/01/18 02:04:32;;;;;;;4.30;1.20;;;0.50;99.90;;;;;;4969106;28;20116;-78
2023/01/18 02:06:58;;;;;;;1.33;1.17;;;0.60;99.90;;;;;;4967831;28;20850;-79
2023/01/18 02:09:24;;;;;;;1.77;1.23;;;0.60;99.90;;;;;;4968935;28;20441;-79
2023/01/18 02:11:52;;;;;;;2.00;1.53;;;0.60;99.90;;;;;;4968391;28;20133;-79
2023/01/18 02:14:20;;;;;;;3.40;1.83;;;0.60;99.90;;;;;;4985996;28;20078;-79
2023/01/18 02:17:00;;;;;;;7.23;1.30;;;0.60;99.90;;;;;;4985087;28;20493;-79
2023/01/18 02:19:57;;;;;;;1.00;0.83;;;0.60;99.90;;;;;;4968696;28;20081;-79
2023/01/18 02:22:26;;;;;;;2.63;0.67;;;0.60;99.90;;;;;;4967703;28;20050;-78
2023/01/18 02:25:09;;;;;;;0.87;0.80;;;0.60;99.90;;;;;;4985860;28;20046;-79
2023/01/18 02:27:44;;;;;;;2.23;2.03;;;0.60;99.90;;;;;;4976722;28;20046;-78
2023/01/18 02:30:22;;;;;;;2.23;2.03;;;0.60;99.90;;;;;;4971160;28;20041;-79
2023/01/18 02:32:51;;;;;;;1.93;0.90;;;0.60;99.90;;;;;;4985518;28;20500;-78
2023/01/18 02:35:36;;;;;;;2.47;2.30;;;0.60;99.90;;;;;;4968182;28;20046;-79
2023/01/18 02:38:13;;;;;;;3.57;2.10;;;0.60;99.90;;;;;;4968204;28;20489;-79
2023/01/18 02:41:09;;;;;;;3.67;1.77;;;0.60;99.90;;;;;;4985793;28;20089;-78
2023/01/18 02:46:30;;;;;;;1.80;1.20;;;0.60;99.90;;;;;;4985700;28;20053;-79
2023/01/18 02:49:03;;;;;;;1.53;1.13;;;0.60;99.90;;;;;;4985401;28;20597;-78
2023/01/18 02:51:29;;;;;;;1.43;1.33;;;0.60;99.90;;;;;;4984766;28;20108;-79
2023/01/18 02:53:56;;;;;;;3.17;1.70;;;0.60;99.90;;;;;;4985138;28;21019;-79
2023/01/18 02:56:44;;;;;;;4.60;2.27;;;0.60;99.90;;;;;;4985197;28;20038;-78
2023/01/18 02:59:15;;;;;;;21.83;2.73;;;0.60;99.90;;;;;;4984093;28;20105;-78
2023/01/18 03:02:12;;;;;;;3.03;1.57;;;0.60;99.90;;;;;;4984922;28;20452;-79
2023/01/18 03:04:58;;;;;;;1.97;1.50;;;0.50;99.90;;;;;;4968972;28;20057;-79
2023/01/18 03:07:51;;;;;;;3.07;1.97;;;0.50;99.90;;;;;;4984127;28;20054;-78
2023/01/18 03:10:17;;;;;;;1.80;1.70;;;0.50;99.90;;;;;;4985290;28;20042;-79
2023/01/18 03:13:00;;;;;;;1.90;1.10;;;0.50;99.90;;;;;;4984684;28;20061;-78
2023/01/18 03:15:37;;;;;;;2.43;2.23;;;0.50;99.90;;;;;;4985071;28;20077;-78
2023/01/18 03:18:09;;;;;;;1.73;1.60;;;0.50;99.90;;;;;;4985340;28;20069;-78
2023/01/18 03:20:40;;;;;;;4.90;3.30;;;0.50;99.90;;;;;;4968054;28;20505;-78
2023/01/18 03:26:04;;;;;;;6.33;1.53;;;0.50;99.90;;;;;;4967680;28;20046;-79
2023/01/18 03:34:19;;;;;;;3.83;1.67;;;0.50;99.90;;;;;;4965963;28;20054;-78
2023/01/18 03:36:47;;;;;;;1.50;1.40;;;0.50;99.90;;;;;;4983393;28;20042;-78
2023/01/18 03:39:33;;;;;;;2.67;2.40;;;0.50;99.90;;;;;;4967568;28;20085;-79
2023/01/18 03:42:04;;;;;;;5.40;2.30;;;0.50;99.90;;;;;;4984329;28;20054;-79
2023/01/18 03:44:37;;;;;;;3.57;2.07;;;0.50;99.90;;;;;;4985148;28;20082;-79
2023/01/18 03:47:05;;;;;;;5.97;3.23;;;0.50;99.90;;;;;;4984635;28;20795;-78
2023/01/18 03:49:33;;;;;;;10.33;2.10;;;0.50;99.90;;;;;;4984998;28;20102;-78
2023/01/18 03:52:15;;;;;;;7.20;2.97;;;0.50;99.90;;;;;;4982855;28;20088;-78
2023/01/18 03:54:50;;;;;;;6.77;3.17;;;0.50;99.90;;;;;;4966715;28;20038;-78
2023/01/18 03:57:24;;;;;;;2.47;2.07;;;0.50;99.90;;;;;;4966864;28;20137;-78
2023/01/18 03:59:50;;;;;;;2.40;2.20;;;0.50;99.90;;;;;;4966611;28;20042;-79
2023/01/18 04:02:17;;;;;;;4.10;1.90;;;0.50;99.90;;;;;;4984479;28;20089;-78
2023/01/18 04:04:43;;;;;;;6.20;3.87;;;0.50;99.90;;;;;;4983709;28;20080;-78
2023/01/18 04:07:09;;;;;;;4.57;2.67;;;0.50;99.90;;;;;;4998338;28;20053;-78
2023/01/18 04:09:34;;;;;;;2.30;2.10;;;0.50;99.90;;;;;;4984706;28;20064;-78
2023/01/18 04:12:00;;;;;;;10.37;3.20;;;0.50;99.90;;;;;;4998501;28;20451;-78
2023/01/18 04:14:25;;;;;;;3.90;2.67;;;0.50;99.90;;;;;;4984274;28;20560;-78
2023/01/18 04:16:51;;;;;;;5.10;3.13;;;0.50;99.90;;;;;;4983604;28;20618;-78
2023/01/18 04:19:17;;;;;;;8.07;4.33;;;0.50;99.90;;;;;;4983967;28;20042;-78
2023/01/18 04:21:43;;;;;;;5.10;3.17;;;0.50;99.90;;;;;;4997999;28;20062;-79
2023/01/18 04:24:10;;;;;;;3.73;2.80;;;0.50;99.90;;;;;;4964705;28;20060;-79
2023/01/18 04:26:36;;;;;;;4.23;3.17;;;0.50;99.90;;;;;;4986715;28;20046;-79
2023/01/18 04:29:02;;;;;;;5.60;3.50;;;0.60;99.90;;;;;;4984211;28;20505;-78
2023/01/18 04:31:28;;;;;;;9.47;3.50;;;0.60;99.90;;;;;;4984245;28;20039;-78
2023/01/18 04:33:53;;;;;;;5.73;3.50;;;0.60;99.90;;;;;;4983688;28;20056;-78
2023/01/18 04:36:19;;;;;;;9.00;4.80;;;0.60;99.90;;;;;;4982855;28;20050;-79
2023/01/18 04:38:45;;;;;;;5.13;4.63;;;0.60;99.90;;;;;;4968340;28;20132;-81
2023/01/18 04:41:11;;;;;;;8.03;4.40;;;0.60;99.90;;;;;;4987671;28;20130;-81
2023/01/18 04:43:37;;;;;;;6.73;3.90;;;0.60;99.90;;;;;;4987577;28;20040;-81
2023/01/18 04:46:02;;;;;;;7.60;4.27;;;0.60;99.90;;;;;;4988563;28;20034;-81
2023/01/18 04:48:28;;;;;;;4.43;3.07;;;0.60;99.90;;;;;;4987844;28;20042;-81
2023/01/18 04:50:54;;;;;;;4.57;3.97;;;0.60;99.90;;;;;;4987580;28;20501;-79
2023/01/18 04:53:20;;;;;;;3.87;3.50;;;0.60;99.90;;;;;;4986931;28;20066;-78
2023/01/18 04:55:45;;;;;;;7.37;3.47;;;0.60;99.90;;;;;;4969973;28;20325;-78
2023/01/18 04:58:11;;;;;;;4.87;2.87;;;0.60;99.90;;;;;;4987702;28;20125;-78
2023/01/18 05:00:38;;;;;;;5.47;4.20;;;0.60;99.90;;;;;;4987541;28;20038;-78
2023/01/18 05:03:06;;;;;;;6.83;2.97;;;0.60;99.90;;;;;;4988166;28;20061;-78
2023/01/18 05:05:32;;;;;;;16.63;6.13;;;0.60;99.90;;;;;;5002596;28;20512;-78
2023/01/18 05:07:57;;;;;;;4.30;2.97;;;0.60;99.90;;;;;;4986311;28;20042;-79
2023/01/18 05:10:23;;;;;;;6.37;3.93;;;0.50;99.90;;;;;;4987556;28;20055;-78
2023/01/18 05:12:48;;;;;;;6.97;4.57;;;0.50;99.90;;;;;;4987007;28;20042;-78
2023/01/18 05:15:14;;;;;;;4.80;3.43;;;0.50;99.90;;;;;;5002274;28;20050;-81
2023/01/18 05:17:40;;;;;;;8.37;4.53;;;0.50;99.90;;;;;;4987077;28;20049;-81
2023/01/18 05:20:07;;;;;;;6.07;4.63;;;0.50;99.90;;;;;;4969786;28;20544;-81
2023/01/18 05:22:33;;;;;;;7.10;3.60;;;0.50;99.90;;;;;;4986869;28;20050;-81
2023/01/18 05:24:59;;;;;;;6.13;4.00;;;0.50;99.90;;;;;;4986988;28;20382;-81
2023/01/18 05:27:25;;;;;;;2.07;1.87;;;0.50;99.90;;;;;;4995381;28;20046;-81
2023/01/18 05:29:50;;;;;;;4.63;2.63;;;0.50;99.90;;;;;;5006407;28;20068;-81
2023/01/18 05:32:16;;;;;;;3.87;2.90;;;0.60;99.90;;;;;;5006851;28;20053;-81
2023/01/18 05:34:42;;;;;;;3.30;2.77;;;0.50;99.90;;;;;;5006204;28;20445;-80
2023/01/18 05:37:09;;;;;;;4.73;2.57;;;0.50;99.90;;;;;;5005642;28;20050;-81
2023/01/18 05:39:34;;;;;;;4.30;2.77;;;0.60;99.90;;;;;;4994879;28;20046;-81
2023/01/18 05:42:00;;;;;;;5.23;3.43;;;0.50;99.90;;;;;;4969167;28;20097;-81
2023/01/18 05:44:26;;;;;;;2.53;2.33;;;0.50;99.90;;;;;;4986860;28;20050;-81
2023/01/18 05:46:52;;;;;;;3.67;3.13;;;0.50;99.90;;;;;;4969259;28;20046;-82
2023/01/18 05:49:17;;;;;;;5.57;3.37;;;0.50;99.90;;;;;;4968640;28;20054;-81
2023/01/18 05:51:43;;;;;;;4.90;2.80;;;0.60;99.90;;;;;;4984688;28;20562;-80
2023/01/18 05:54:08;;;;;;;9.57;2.57;;;0.50;99.90;;;;;;4986531;28;20046;-81
2023/01/18 05:56:34;;;;;;;4.97;2.73;;;0.50;99.90;;;;;;4969255;28;20164;-81
2023/01/18 05:59:00;;;;;;;5.87;3.40;;;0.50;99.90;;;;;;4968450;28;20050;-82
2023/01/18 06:01:26;;;;;;;5.97;2.33;;;0.50;99.90;;;;;;4969115;28;20428;-81
2023/01/18 06:03:52;;;;;;;3.43;2.83;;;0.50;99.90;;;;;;4985635;28;20046;-81
2023/01/18 06:06:17;;;;;;;3.97;2.03;;;0.50;99.90;;;;;;4985059;28;20038;-81
2023/01/18 06:08:43;;;;;;;4.47;2.00;;;0.50;99.90;;;;;;4986317;28;20046;-81
2023/01/18 06:11:09;;;;;;;36.30;3.80;;;0.50;99.90;;;;;;4986180;28;20043;-81
2023/01/18 06:13:35;;;;;;;14.57;2.87;;;0.50;99.90;;;;;;4984066;28;20034;-81
2023/01/18 06:16:01;;;;;;;6.70;3.77;;;0.50;99.90;;;;;;4969367;28;20042;-81
2023/01/18 06:18:30;;;;;;;7.97;3.67;;;0.50;99.90;;;;;;4985432;28;20069;-78
2023/01/18 06:20:56;;;;;;;4.50;2.47;;;0.50;99.90;;;;;;4984132;28;20119;-78
2023/01/18 06:23:22;;;;;;;3.77;3.27;;;0.60;99.90;;;;;;4990438;28;20038;-77
2023/01/18 06:25:48;;;;;;;6.77;3.23;;;0.60;99.90;;;;;;4966878;28;20104;-78
2023/01/18 06:28:14;;;;;;;6.67;3.50;;;0.60;99.90;;;;;;4999917;28;20421;-78
2023/01/18 06:30:41;;;;;;;8.47;5.83;;;0.60;99.90;;;;;;4986739;28;20038;-78
2023/01/18 06:33:07;;;;;;;3.30;2.97;;;0.60;99.90;;;;;;4984176;28;20509;-77
2023/01/18 06:35:34;;;;;;;22.53;2.67;;;0.60;99.90;;;;;;4963775;28;20057;-79
2023/01/18 06:37:59;;;;;;;4.47;3.27;;;0.60;99.90;;;;;;4944061;28;20044;-79
2023/01/18 06:40:26;;;;;;;8.87;3.47;;;0.70;99.90;;;;;;4965945;28;20239;-80
2023/01/18 06:42:51;;;;;;;5.27;3.20;;;0.70;99.90;;;;;;4979685;28;20034;-79
2023/01/18 06:45:18;;;;;;;4.70;1.93;;;0.70;99.90;;;;;;4984745;28;20043;-79
2023/01/18 06:47:44;;;;;;;27.63;2.73;;;0.70;99.90;;;;;;4968523;28;20043;-79
2023/01/18 06:50:10;;;;;;;4.70;2.77;;;0.70;99.90;;;;;;4985888;28;20042;-79
2023/01/18 06:52:36;;;;;;;5.03;2.70;;;0.70;99.90;;;;;;4993199;28;20057;-79
2023/01/18 06:55:02;;;;;;;2.77;2.27;;;0.70;99.90;;;;;;4984767;28;20046;-81
2023/01/18 06:57:27;;;;;;;7.57;2.10;;;0.80;99.90;;;;;;4997170;28;20097;-77
2023/01/18 06:59:53;;;;;;;3.63;2.53;;;0.80;99.90;;;;;;4966370;28;20058;-78
2023/01/18 07:02:22;;;;;;;10.90;2.97;;;0.80;99.90;;;;;;4984822;28;20050;-77
2023/01/18 07:04:47;;;;;;;3.50;3.20;;;0.70;99.90;;;;;;4968741;28;20115;-77
2023/01/18 07:07:13;;;;;;;18.53;3.53;;;0.80;99.90;;;;;;4984905;28;20050;-77
2023/01/18 07:09:39;;;;;;;4.67;2.20;;;0.70;99.90;;;;;;4992876;28;20074;-77
2023/01/18 07:12:05;;;;;;;4.07;1.87;;;0.80;99.90;;;;;;4984196;28;20096;-78
2023/01/18 07:14:30;;;;;;;3.13;2.40;;;0.70;99.90;;;;;;4983980;28;20038;-77
2023/01/18 07:16:56;;;;;;;2.97;2.57;;;0.70;99.90;;;;;;4984426;28;20105;-78
2023/01/18 07:19:21;;;;;;;4.17;2.87;;;0.70;99.90;;;;;;4984443;28;20030;-78
2023/01/18 07:21:48;;;;;;;9.27;2.30;;;0.70;99.90;;;;;;4982509;28;20368;-77
2023/01/18 07:24:13;;;;;;;3.13;1.63;;;0.70;99.90;;;;;;4984438;28;20321;-77
2023/01/18 07:26:39;;;;;;;5.37;3.20;;;0.70;99.90;;;;;;5000569;28;20109;-79
2023/01/18 07:29:05;;;;;;;3.67;2.43;;;0.70;99.90;;;;;;4994500;28;20546;-80
2023/01/18 07:31:30;;;;;;;3.50;2.37;;;0.70;99.90;;;;;;4992210;28;20043;-79
2023/01/18 07:33:56;;;;;;;3.23;2.40;;;0.70;99.90;;;;;;4973703;28;20077;-79
2023/01/18 07:36:22;;;;;;;3.70;1.93;;;0.70;99.90;;;;;;4974964;28;21058;-77
2023/01/18 07:38:48;;;;;;;2.73;2.03;;;0.70;99.90;;;;;;4976258;28;20034;-79
2023/01/18 07:41:15;;;;;;;3.30;2.37;;;0.70;99.90;;;;;;4981911;28;20137;-79
2023/01/18 07:43:42;;;;;;;2.90;2.30;;;0.70;99.90;;;;;;4962853;28;20514;-76
2023/01/18 07:46:14;;;;;;;4.17;2.47;;;0.70;99.90;;;;;;4972381;28;20125;-79
2023/01/18 07:48:40;;;;;;;1.80;1.70;;;0.70;99.90;;;;;;4950525;28;20412;-80
2023/01/18 07:51:08;;;;;;;2.80;2.07;;;0.70;99.90;;;;;;4982889;28;20053;-77
2023/01/18 07:53:35;;;;;;;3.67;3.13;;;0.70;99.90;;;;;;4983750;28;20428;-80
2023/01/18 07:56:03;;;;;;;10.57;2.57;;;0.70;99.90;;;;;;4983781;28;20039;-79
2023/01/18 07:58:29;;;;;;;7.53;2.67;;;0.70;99.90;;;;;;4983227;28;20060;-78
2023/01/18 08:00:54;;;;;;;5.27;2.23;;;0.80;99.90;;;;;;4971788;28;20034;-78
2023/01/18 08:03:20;;;;;;;2.93;2.57;;;0.70;99.90;;;;;;4986038;28;20556;-79
2023/01/18 08:05:47;;;;;;;2.43;2.23;;;0.70;99.90;;;;;;4981521;28;20077;-79
2023/01/18 08:08:14;;;;;;;2.27;1.40;;;0.70;99.90;;;;;;4982009;28;20050;-79
2023/01/18 08:10:40;;;;;;;3.90;1.83;;;0.80;99.90;;;;;;4982398;28;20039;-79
2023/01/18 08:13:10;;;;;;;1.60;1.50;;;0.70;99.90;;;;;;4982383;28;20148;-80
2023/01/18 08:15:37;;;;;;;4.90;3.30;;;0.70;99.90;;;;;;4983006;28;20070;-80
2023/01/18 08:18:04;;;;;;;3.43;2.47;;;0.80;99.90;;;;;;4983445;28;20046;-77
2023/01/18 08:20:30;;;;;;;4.53;1.80;;;0.80;99.90;;;;;;4958566;28;20054;-80
2023/01/18 08:22:57;;;;;;;1.93;1.50;;;0.80;99.90;;;;;;4981893;28;20397;-80
2023/01/18 08:25:28;;;;;;;3.00;1.47;;;0.70;99.90;;;;;;4982459;28;20085;-79
2023/01/18 08:27:58;;;;;;;3.80;2.37;;;0.70;99.90;;;;;;4994854;28;20444;-76
2023/01/18 08:30:29;;;;;;;5.40;2.60;;;0.70;99.90;;;;;;4989444;28;20042;-79
2023/01/18 08:32:56;;;;;;;5.37;3.93;;;0.70;99.90;;;;;;4964827;28;20764;-78
2023/01/18 08:35:23;;;;;;;4.20;3.77;;;0.70;99.90;;;;;;4983181;28;20035;-79
2023/01/18 08:37:49;;;;;;;4.90;3.73;;;0.70;99.90;;;;;;4981314;28;20472;-79
2023/01/18 08:40:15;;;;;;;4.10;3.13;;;0.60;99.90;;;;;;4982673;28;20047;-78
2023/01/18 08:42:40;;;;;;;9.40;4.33;;;0.70;99.90;;;;;;4982825;28;20056;-80
2023/01/18 08:45:06;;;;;;;12.53;3.53;;;0.70;99.90;;;;;;4983100;28;20042;-79
2023/01/18 08:47:32;;;;;;;6.63;3.53;;;0.70;99.90;;;;;;4965171;28;20053;-80
2023/01/18 08:49:58;;;;;;;6.03;2.90;;;0.70;99.90;;;;;;4981996;28;20042;-79
2023/01/18 08:52:23;;;;;;;8.57;4.30;;;0.60;99.90;;;;;;4981049;28;20520;-79
2023/01/18 08:54:49;;;;;;;5.57;3.50;;;0.70;99.90;;;;;;4982662;28;20104;-77
2023/01/18 08:57:15;;;;;;;13.50;3.70;;;0.70;99.90;;;;;;4982265;28;20065;-80
2023/01/18 08:59:41;;;;;;;8.10;4.67;;;0.70;99.90;;;;;;4982358;28;20042;-79
2023/01/18 09:02:09;;;;;;;9.90;4.23;;;0.70;99.90;;;;;;4964913;28;20050;-78
2023/01/18 09:04:35;;;;;;;5.93;3.63;;;0.80;99.90;;;;;;4964914;28;20042;-79
2023/01/18 09:07:00;;;;;;;6.40;3.37;;;0.80;99.90;;;;;;4981757;28;20053;-80
2023/01/18 09:09:26;;;;;;;8.90;4.70;;;0.90;99.90;;;;;;4982584;28;20126;-80
2023/01/18 09:11:51;;;;;;;6.43;5.13;;;1.00;99.90;;;;;;4964450;28;20049;-78
2023/01/18 09:14:17;;;;;;;6.37;4.60;;;1.00;99.90;;;;;;4982351;28;20046;-77
2023/01/18 09:16:43;;;;;;;9.13;4.43;;;1.00;99.90;;;;;;4964686;28;20057;-80
2023/01/18 09:19:08;;;;;;;7.20;4.67;;;1.00;99.90;;;;;;4981316;28;20121;-80
2023/01/18 09:21:34;;;;;;;6.97;4.97;;;1.10;99.90;;;;;;4963852;28;20169;-80
2023/01/18 09:24:00;;;;;;;8.17;4.57;;;1.00;99.90;;;;;;4983190;28;20140;-78
2023/01/18 09:26:27;;;;;;;21.73;5.50;;;1.00;99.90;;;;;;4985166;28;20575;-78
2023/01/18 09:28:53;;;;;;;9.23;4.73;;;1.10;99.90;;;;;;4985339;28;20058;-80
2023/01/18 09:31:21;;;;;;;18.53;6.40;;;1.10;99.90;;;;;;4985906;28;20500;-80
2023/01/18 09:33:46;;;;;;;9.07;4.93;;;1.10;99.90;;;;;;4985344;28;20117;-79
2023/01/18 09:36:13;;;;;;;5.00;4.37;;;1.20;99.90;;;;;;4984653;28;20038;-77
2023/01/18 09:38:41;;;;;;;6.20;5.57;;;1.20;99.90;;;;;;4985826;28;20218;-79
2023/01/18 09:41:21;;;;;;;7.73;3.77;;;1.20;99.90;;;;;;4967541;28;20092;-80
2023/01/18 09:43:50;;;;;;;9.83;4.20;;;1.30;99.90;;;;;;4968293;28;20046;-80
2023/01/18 09:46:21;;;;;;;4.53;3.60;;;1.30;99.90;;;;;;4985034;28;20050;-77
2023/01/18 09:49:01;;;;;;;5.70;3.30;;;1.30;99.90;;;;;;4985376;28;20038;-80
2023/01/18 09:51:31;;;;;;;12.80;5.20;;;1.40;99.90;;;;;;4967224;28;20393;-80
2023/01/18 09:54:03;;;;;;;8.87;4.73;;;1.50;99.90;;;;;;4985533;28;20169;-80
2023/01/18 09:56:45;;;;;;;4.40;3.67;;;1.50;99.90;;;;;;4985182;28;20041;-79
2023/01/18 09:59:27;;;;;;;10.80;5.03;;;1.60;99.90;;;;;;4985055;28;20054;-79
2023/01/18 10:01:53;;;;;;;10.70;4.85;;;1.70;99.90;;;;;;4985161;28;20050;-80
2023/01/18 10:04:31;;;;;;;15.30;7.00;;;1.70;99.90;;;;;;4985305;28;20045;-80
2023/01/18 10:07:16;;;;;;;6.70;4.03;;;1.80;99.90;;;;;;4984466;28;20125;-80
2023/01/18 10:09:47;;;;;;;5.43;4.67;;;1.90;99.90;;;;;;4966914;28;20049;-80
2023/01/18 10:12:27;;;;;;;3.40;2.83;;;1.90;99.90;;;;;;4984991;28;20119;-81
2023/01/18 10:15:03;;;;;;;6.53;5.07;;;2.00;99.90;;;;;;4966537;28;20511;-78
2023/01/18 10:17:35;;;;;;;9.70;4.10;;;2.00;99.90;;;;;;4966867;28;20073;-80
2023/01/18 10:20:17;;;;;;;4.13;3.63;;;2.10;99.90;;;;;;4949876;28;20052;-78
2023/01/18 10:23:14;;;;;;;5.60;3.55;;;2.20;99.90;;;;;;4957272;28;20050;-80
2023/01/18 10:25:54;;;;;;;9.77;3.97;;;2.20;99.90;;;;;;4946372;28;20640;-81
2023/01/18 10:28:34;;;;;;;7.70;4.63;;;2.30;99.90;;;;;;4967317;28;20049;-79
2023/01/18 10:31:02;;;;;;;3.73;2.53;;;2.30;99.90;;;;;;4943444;28;20048;-84
2023/01/18 10:33:37;;;;;;;15.77;2.53;;;2.40;99.90;;;;;;4944601;28;20051;-78
2023/01/18 10:36:17;;;;;;;4.95;2.72;;;2.40;99.90;;;;;;4975521;28;20063;-79
2023/01/18 10:38:45;;;;;;;9.40;3.00;;;2.50;99.90;;;;;;4971995;28;20127;-80
2023/01/18 10:41:24;;;;;;;3.47;1.93;;;2.60;99.90;;;;;;4985243;28;20070;-78
2023/01/18 10:43:50;;;;;;;7.17;3.30;;;2.60;99.90;;;;;;4984168;28;20045;-81
2023/01/18 10:46:36;;;;;;;7.20;3.83;;;2.70;99.90;;;;;;4988334;28;20042;-83
2023/01/18 10:51:48;;;;;;;6.63;2.80;;;2.70;99.90;;;;;;4983512;28;20120;-79
2023/01/18 10:54:17;;;;;;;8.60;2.70;;;2.80;99.90;;;;;;4984098;28;20050;-79
2023/01/18 10:56:43;;;;;;;6.17;2.60;;;2.80;99.90;;;;;;4983161;28;20082;-79
2023/01/18 10:59:23;;;;;;;6.60;2.63;;;2.90;99.90;;;;;;4983943;28;20043;-79
2023/01/18 11:01:53;;;;;;;3.30;1.93;;;2.90;99.90;;;;;;4984215;28;20072;-79
2023/01/18 11:04:27;;;;;;;5.90;3.00;;;2.90;99.90;;;;;;4998915;28;20050;-80
2023/01/18 11:06:56;;;;;;;3.27;2.07;;;2.90;99.90;;;;;;4982635;28;20105;-79
2023/01/18 11:09:50;;;;;;;4.97;2.40;;;3.00;99.90;;;;;;4984955;28;20030;-79
2023/01/18 11:12:40;;;;;;;1.70;1.60;;;2.90;99.90;;;;;;4984291;28;20212;-79
2023/01/18 11:15:14;;;;;;;3.50;1.70;;;3.00;99.90;;;;;;4982313;28;20408;-80
2023/01/18 11:17:53;;;;;;;23.50;3.37;;;3.00;99.90;;;;;;4967859;28;20076;-79
2023/01/18 11:20:39;;;;;;;3.57;2.50;;;3.00;99.90;;;;;;4976325;28;20359;-79
2023/01/18 11:23:21;;;;;;;4.13;1.63;;;3.10;99.90;;;;;;4966621;28;20084;-79
2023/01/18 11:25:52;;;;;;;;;;;3.20;99.90;;;;;;4985690;28;20042;-79
2023/01/18 11:28:19;;;;;;;3.77;1.80;;;3.20;99.90;;;;;;4987843;28;20299;-79
2023/01/18 11:30:50;;;;;;;4.77;1.60;;;3.20;99.90;;;;;;4983891;28;20035;-79
2023/01/18 11:33:19;;;;;;;3.22;2.17;;;3.20;99.90;;;;;;4982869;28;20042;-79
2023/01/18 11:35:45;;;;;;;2.40;2.15;;;3.20;99.90;;;;;;4967363;28;20050;-80
2023/01/18 11:38:17;;;;;;;2.87;2.10;;;3.20;99.90;;;;;;4993422;28;20050;-80
2023/01/18 11:40:44;;;;;;;6.67;2.43;;;3.20;99.90;;;;;;5003226;28;20081;-79
2023/01/18 11:43:21;;;;;;;5.57;2.57;;;3.20;99.90;;;;;;4999857;28;20366;-80
2023/01/18 11:46:12;;;;;;;8.10;2.80;;;3.20;99.90;;;;;;4994971;28;20100;-80
2023/01/18 11:48:47;;;;;;;1.90;1.47;;;3.20;99.90;;;;;;4963597;28;20065;-80
2023/01/18 11:51:30;;;;;;;4.27;1.70;;;3.30;99.90;;;;;;4963685;28;20660;-79
2023/01/18 11:54:03;;;;;;;2.30;1.33;;;3.30;99.90;;;;;;4989427;28;20050;-80
2023/01/18 11:56:38;;;;;;;8.53;3.20;;;3.30;99.90;;;;;;4984250;28;20043;-79
2023/01/18 11:59:22;;;;;;;5.63;1.48;;;3.30;99.90;;;;;;4983999;28;20046;-79
2023/01/18 12:02:23;;;;;;;1.97;1.37;;;3.40;99.90;;;;;;4931823;28;20042;-80
2023/01/18 12:05:21;;;;;;;8.00;2.03;;;3.50;99.90;;;;;;4947784;28;20062;-79
2023/01/18 12:08:14;;;;;;;2.75;1.95;;;3.60;99.90;;;;;;4946436;28;20039;-79
2023/01/18 12:10:45;;;;;;;1.65;1.05;;;3.60;99.90;;;;;;4998126;28;20046;-79
2023/01/18 12:13:48;;;;;;;3.83;2.22;;;3.60;99.90;;;;;;4981746;28;20068;-79
2023/01/18 12:16:20;;;;;;;3.88;2.28;;;3.70;99.90;;;;;;4977535;28;20048;-79
2023/01/18 12:19:04;;;;;;;1.17;1.02;;;3.70;99.90;;;;;;4982413;28;20497;-79
2023/01/18 12:21:35;;;;;;;4.45;1.20;;;3.70;99.90;;;;;;4923319;28;20061;-79
2023/01/18 12:24:35;;;;;;;3.15;1.02;;;3.70;99.90;;;;;;4951159;28;20039;-81
2023/01/18 12:27:36;;;;;;;3.85;1.10;;;3.70;99.90;;;;;;4966690;28;20038;-80
2023/01/18 12:30:26;;;;;;;3.80;2.15;;;3.70;99.90;;;;;;4974800;28;20266;-81
2023/01/18 12:33:07;;;;;;;4.75;1.50;;;3.70;99.90;;;;;;4979061;28;20463;-84
2023/01/18 12:36:06;;;;;;;2.45;2.05;;;3.80;99.90;;;;;;4945738;28;20393;-84
2023/01/18 12:42:02;;;;;;;2.53;1.58;;;3.80;99.90;;;;;;4875372;29;20051;-83
2023/01/18 12:45:01;;;;;;;1.50;1.40;;;3.80;99.90;;;;;;4981498;28;20042;-83
2023/01/18 12:47:34;;;;;;;1.65;1.35;;;3.70;99.90;;;;;;4982841;28;20041;-82
2023/01/18 12:50:20;;;;;;;2.50;1.27;;;3.80;99.90;;;;;;4978671;28;20042;-83
2023/01/18 12:52:50;;;;;;;3.92;2.90;;;3.80;99.90;;;;;;4977896;28;20536;-79
2023/01/18 12:55:22;;;;;;;3.58;1.77;;;3.80;99.90;;;;;;4946618;28;20038;-79
2023/01/18 12:57:57;;;;;;;5.10;1.95;;;3.80;99.90;;;;;;4987389;28;20108;-79
2023/01/18 13:00:30;;;;;;;1.85;1.17;;;3.70;99.90;;;;;;4984152;28;20050;-78
2023/01/18 13:02:56;;;;;;;1.60;1.45;;;3.80;99.90;;;;;;4987370;28;20415;-79
2023/01/18 13:05:51;;;;;;;4.50;1.50;;;3.70;99.90;;;;;;4985037;28;20374;-80
2023/01/18 13:08:28;;;;;;;1.70;1.17;;;3.70;99.90;;;;;;4983854;28;20317;-78
2023/01/18 13:11:16;;;;;;;3.05;1.67;;;3.70;99.90;;;;;;4919334;28;20135;-79
2023/01/18 13:13:43;;;;;;;3.33;1.02;;;3.70;99.90;;;;;;4976295;28;20576;-79
2023/01/18 13:16:28;;;;;;;0.93;0.68;;;3.70;99.90;;;;;;4986556;28;20042;-79
2023/01/18 13:19:07;;;;;;;8.52;1.20;;;3.80;99.90;;;;;;4994181;28;20062;-78
2023/01/18 13:21:46;;;;;;;2.65;1.30;;;3.70;99.90;;;;;;4940435;28;20106;-78
2023/01/18 13:24:24;;;;;;;1.80;1.70;;;3.70;99.90;;;;;;4888511;28;20127;-79
2023/01/18 13:26:52;;;;;;;1.23;1.13;;;3.80;99.90;;;;;;4887777;28;20040;-78
2023/01/18 13:29:24;;;;;;;1.48;0.98;;;3.80;99.90;;;;;;4951629;28;20098;-78
2023/01/18 13:31:51;;;;;;;2.35;2.15;;;3.80;99.90;;;;;;4886733;29;20041;-78
2023/01/18 13:34:27;;;;;;;3.85;1.42;;;3.80;99.90;;;;;;4887339;29;20276;-79
2023/01/18 13:36:54;;;;;;;1.92;1.25;;;3.80;99.90;;;;;;4977526;28;20384;-79
2023/01/18 13:39:21;;;;;;;5.28;1.80;;;3.80;99.90;;;;;;4894838;28;20059;-78
2023/01/18 13:42:06;;;;;;;2.85;1.83;;;3.80;99.90;;;;;;4886209;29;20040;-79
2023/01/18 13:44:42;;;;;;;1.27;1.00;;;3.90;99.90;;;;;;4958582;28;20056;-79
2023/01/18 13:47:42;;;;;;;3.03;1.35;;;3.90;99.90;;;;;;4970342;28;20048;-79
2023/01/18 13:50:27;;;;;;;2.97;2.17;;;3.90;99.90;;;;;;4892541;28;20120;-79
2023/01/18 13:53:22;;;;;;;3.05;1.55;;;4.00;99.90;;;;;;4951189;28;20432;-78